Create Custom Reports and Graphics: Custom Report

Last 6 Observations

Last 30 Minutes (5-Min)

5 Minute Data | America/Los_Angeles
as of 9/5/26 7:35 PM PDT
Date & Time Wind Spd (mph) Wind Dir (°) Wind Gust (mph) Wind Spd Sonic (mph) Wind Dir Sonic (°) Wind Gust Sonic (mph)
9/5/26 - 1935 36.8 N | 1 48.2 36.8 SW | 220 45.6
9/5/26 - 1930 34.8 SW | 217 44.7 35.5 SW | 219 43.8
9/5/26 - 1925 36.0 SW | 217 46.1 36.6 SW | 219 43.2
9/5/26 - 1920 37.0 S | 188 45.8 37.4 SW | 221 43.8
9/5/26 - 1915 35.7 SW | 220 46.6 36.3 SW | 220 43.2
9/5/26 - 1910 38.7 NNE | 22 46.4 39.3 SW | 218 46.5
Max 38.7 - 48.2 39.3 - 46.5
Avg 36.5 - 46.3 37.0 - 44.4
Min 34.8 - 44.7 35.5 - 43.2

Top Stn/Summit - 11,053ft

Current Conditions

9/5/26 7:30 PM (-07:00)
Updated Every 15 Minutes
Wind Spd 35.9 mph   3.2
Wind Spd Sonic 36.5 mph   3.0
Wind Dir SW | 216 °
Wind Dir Sonic SW | 220 °
Wind Gust 46.1 mph   2.1
Wind Gust Sonic 43.8 mph   1.8
Temp 36.7 °F   0.2
WindChill 22.3 °F   0.0
RH 90 %   10
Dew Pt 34.0 °F   2.5
Wet Bulb 35.6 °F   0.9
Daily Max Wind 53.8 mph   2.3
Time of Max Wind 1610
Max Wind Dir NNE | 16 °
Daily Max Gust Sonic 54.6 mph   0.0
Time Wind Max Sonic 1718
Dir Max Gust Sonic SW | 220 Degrees
Daily Max Temp 45.1 °F   4.3
Daily Min Temp 30.0 °F   0.8
Yest MaxT 40.8 °F
Yest MinT 30.8 °F
Yest MaxGst 56.1 mph

Last 24 Hours

Top Stn/Summit - 11,053ft

15 Minute Data | America/Los_Angeles
as of 9/5/26 7:35 PM PDT
Date & Time Temp (°F) WindChill (°F) RH (%) Dew Pt (°F) Wet Bulb (°F) Wind Spd (mph) Wind Spd Sonic (mph) Wind Dir (°) Wind Dir Sonic (°) Wind Gust (mph) Wind Gust Sonic (mph) Daily Min Temp (°F) Daily Max Temp (°F) Daily Max Wind (mph) Daily Max Gust Sonic (mph)
9/5/26 - 1930 36.7 22.3 90 34.0 35.6 35.9 36.5 SW | 216 SW | 220 46.1 43.8 30.0 45.1 53.8 54.6
9/5/26 - 1915 37.5 23.0 88 34.2 36.2 37.4 38.0 N | 7 SW | 218 49.8 46.5 30.0 45.1 53.8 54.6
9/5/26 - 1900 38.1 24.0 87 34.4 36.6 36.3 36.9 WSW | 244 SW | 223 48.7 48.1 30.0 45.1 53.8 54.6
9/5/26 - 1845 38.7 24.9 86 34.8 37.1 33.9 33.6 S | 190 SW | 227 49.2 45.9 30.0 45.1 53.8 54.6
9/5/26 - 1830 39.3 25.4 84 35.1 37.6 38.2 38.3 NE | 37 SW | 222 50.9 49.9 30.0 45.1 53.8 54.6
9/5/26 - 1815 39.8 25.9 84 35.3 38.0 38.4 38.7 NNE | 16 SW | 223 52.8 49.0 30.0 45.1 53.8 54.6
9/5/26 - 1800 40.0 26.3 84 35.7 38.2 37.2 37.3 NNE | 13 SW | 225 53.4 52.1 30.0 45.1 53.8 54.6
9/5/26 - 1745 40.0 26.7 84 35.6 38.2 35.5 34.9 NNE | 32 SW | 230 48.3 51.7 30.0 45.1 53.8 54.6
9/5/26 - 1730 40.3 27.0 84 35.8 38.5 35.9 34.9 ESE | 113 SW | 232 50.8 54.6 30.0 45.1 53.8 54.6
9/5/26 - 1715 40.6 27.4 83 36.0 38.7 35.2 34.6 NNE | 22 SW | 231 51.6 50.8 30.0 45.1 53.8 53.7
9/5/26 - 1700 40.4 27.1 85 36.3 38.7 35.1 34.0 N | 7 SW | 232 50.0 53.2 30.0 45.1 53.8 53.7
9/5/26 - 1645 40.8 27.8 84 36.2 39.0 35.5 35.0 NNE | 32 SW | 228 49.8 52.1 30.0 45.1 53.8 53.7
9/5/26 - 1630 41.5 28.4 81 36.1 39.3 37.2 36.3 NNE | 22 SW | 228 53.2 51.2 30.0 45.1 53.8 53.7
9/5/26 - 1615 42.2 29.5 77 35.7 39.5 35.8 34.9 S | 181 SW | 231 53.8 53.7 30.0 45.1 53.8 53.7
9/5/26 - 1600 42.8 30.7 75 35.4 39.7 32.9 31.6 SW | 225 SW | 232 47.8 49.7 30.0 45.1 52.4 51.7
9/5/26 - 1545 43.1 31.3 73 35.0 39.7 31.9 30.5 SSW | 211 SW | 236 46.7 50.1 30.0 45.1 52.4 51.7
9/5/26 - 1530 43.2 31.3 72 34.7 39.6 33.8 32.7 SSW | 210 SW | 232 47.6 49.7 30.0 45.1 52.4 51.7
9/5/26 - 1515 43.2 30.9 72 34.6 39.6 34.5 33.7 WSW | 258 SW | 230 52.4 51.7 30.0 45.1 52.4 51.7
9/5/26 - 1500 43.9 32.2 69 34.4 39.8 33.3 32.0 SSW | 212 SW | 231 49.2 48.5 30.0 45.1 50.5 50.1
9/5/26 - 1445 44.0 32.1 69 34.4 39.9 37.1 37.4 WSW | 242 SW | 223 50.1 50.1 30.0 45.1 50.5 50.1
9/5/26 - 1430 43.7 31.9 68 33.8 39.5 34.2 33.9 SW | 222 SW | 223 48.9 48.1 30.0 45.1 50.5 48.1
9/5/26 - 1415 44.1 32.4 67 33.8 39.7 33.3 32.2 SW | 223 SW | 226 50.5 47.9 30.0 45.1 50.5 47.9
9/5/26 - 1400 44.2 32.8 67 34.1 39.9 32.0 32.7 SW | 225 SW | 223 46.0 47.2 30.0 45.1 46.0 47.4
9/5/26 - 1345 44.0 33.0 69 34.4 39.9 30.6 30.8 SW | 220 SW | 225 42.3 41.8 30.0 45.1 44.0 47.4
9/5/26 - 1330 43.9 32.9 69 34.3 39.8 31.1 31.7 SW | 222 SW | 221 40.4 43.4 30.0 45.1 44.0 47.4
9/5/26 - 1315 43.7 32.4 69 34.0 39.6 31.1 31.4 SW | 218 SW | 223 43.8 43.8 30.0 45.1 44.0 47.4
9/5/26 - 1300 43.9 32.8 66 33.3 39.4 29.6 29.3 SW | 222 SW | 226 44.0 47.4 30.0 45.1 44.0 47.4
9/5/26 - 1245 43.9 33.1 65 32.9 39.3 28.4 28.0 SW | 219 SW | 228 40.6 41.8 30.0 45.1 42.3 41.8
9/5/26 - 1230 43.7 32.9 64 32.2 38.9 28.0 27.8 SW | 221 SW | 224 40.4 38.7 30.0 45.1 42.3 41.2
9/5/26 - 1215 44.6 33.8 61 31.8 39.2 30.3 30.1 SW | 217 SW | 221 42.3 40.7 30.0 45.1 42.3 41.2
9/5/26 - 1200 43.8 33.2 57 29.7 38.0 28.2 28.3 SW | 220 SW | 217 37.2 40.7 30.0 44.3 42.2 41.2
9/5/26 - 1145 43.7 32.8 58 29.7 38.0 28.9 29.2 SW | 214 SW | 214 40.5 39.4 30.0 44.2 42.2 41.2
9/5/26 - 1130 42.6 31.7 59 29.4 37.3 28.0 28.9 SW | 216 SW | 214 36.3 35.8 30.0 43.8 42.2 41.2
9/5/26 - 1115 42.3 31.5 57 28.3 36.7 25.9 26.7 SW | 216 SW | 214 35.2 33.3 30.0 42.5 42.2 41.2
9/5/26 - 1100 41.8 30.8 58 28.1 36.4 26.5 27.6 SSW | 213 SSW | 211 34.4 32.2 30.0 42.2 42.2 41.2
9/5/26 - 1045 40.5 29.3 60 27.6 35.5 25.3 26.0 SSW | 213 SSW | 213 32.7 31.1 30.0 41.2 42.2 41.2
9/5/26 - 1030 39.9 28.4 60 27.0 34.9 25.2 25.8 SW | 222 SW | 215 33.3 31.1 30.0 40.4 42.2 41.2
9/5/26 - 1015 38.8 26.8 61 26.5 34.1 25.5 27.0 SSW | 209 SW | 214 35.1 33.3 30.0 39.2 42.2 41.2
9/5/26 - 1000 38.0 25.8 61 25.8 33.4 25.8 26.8 SW | 218 SW | 216 33.7 31.3 30.0 38.6 42.2 41.2
9/5/26 - 0945 37.2 25.3 62 25.2 32.8 23.2 23.7 SW | 217 SW | 214 30.3 28.0 30.0 37.7 42.2 41.2
9/5/26 - 0930 36.5 24.2 63 25.0 32.3 24.5 25.2 SW | 231 SSW | 213 30.7 29.3 30.0 37.0 42.2 41.2
9/5/26 - 0915 35.6 22.7 64 24.8 31.7 25.1 25.8 WNW | 285 SSW | 212 32.6 30.6 30.0 35.9 42.2 41.2
9/5/26 - 0900 35.4 22.3 65 24.8 31.5 26.0 27.2 WNW | 297 SSW | 212 33.2 31.8 30.0 35.9 42.2 41.2
9/5/26 - 0845 34.9 21.3 66 24.7 31.2 27.8 28.6 NNW | 340 SSW | 211 35.8 32.7 30.0 35.6 42.2 41.2
9/5/26 - 0830 34.7 21.0 65 24.2 30.9 27.8 28.6 ENE | 72 SSW | 210 34.9 32.4 30.0 35.1 42.2 41.2
9/5/26 - 0815 33.6 19.4 68 24.1 30.2 27.6 28.4 ENE | 72 SSW | 212 36.2 32.2 30.0 34.0 42.2 41.2
9/5/26 - 0800 33.7 19.7 68 24.3 30.4 27.5 28.7 ESE | 118 SW | 215 35.1 32.9 30.0 34.0 42.2 41.2
9/5/26 - 0745 33.0 18.8 72 25.0 30.1 27.5 28.8 ESE | 122 SW | 215 34.4 32.4 30.0 33.8 42.2 41.2
9/5/26 - 0730 31.9 17.2 77 25.4 29.5 27.2 28.1 ESE | 108 SW | 216 35.4 33.6 30.0 33.8 42.2 41.2
9/5/26 - 0715 31.4 16.1 80 25.8 29.3 29.6 31.1 SE | 126 SW | 215 36.8 34.7 30.0 33.8 42.2 41.2
9/5/26 - 0700 30.6 15.0 83 26.1 28.9 29.7 31.5 ESE | 122 SW | 216 37.3 36.2 30.0 33.8 42.2 41.2
9/5/26 - 0645 30.3 14.5 85 26.4 28.8 30.2 32.0 SE | 125 SW | 215 38.0 36.0 30.0 33.8 42.2 41.2
9/5/26 - 0630 30.2 14.4 87 26.7 28.9 30.3 32.6 SE | 129 SW | 214 38.1 36.9 30.0 33.8 42.2 41.2
9/5/26 - 0615 30.4 14.4 86 26.7 29.0 30.2 32.5 ESE | 123 SSW | 213 39.7 36.0 30.0 33.8 42.2 41.2
9/5/26 - 0600 30.4 14.6 88 27.2 29.1 30.5 32.6 ESE | 123 SSW | 213 37.3 35.8 30.0 33.8 42.2 41.2
9/5/26 - 0545 30.4 14.4 89 27.5 29.3 30.9 33.4 SE | 125 SSW | 213 39.1 37.4 30.0 33.8 42.2 41.2
9/5/26 - 0530 30.5 14.5 91 28.2 29.6 31.9 34.5 ESE | 123 SSW | 213 40.0 38.0 30.0 33.8 42.2 41.2
9/5/26 - 0515 30.2 14.2 98 29.8 29.9 31.5 34.0 ESE | 118 SSW | 213 38.1 37.1 30.0 33.8 42.2 41.2
9/5/26 - 0500 30.1 14.0 100 30.1 30.0 32.2 34.2 ESE | 110 SSW | 213 38.9 37.8 30.0 33.8 42.2 41.2
9/5/26 - 0445 30.1 14.4 100 30.1 30.0 30.4 32.5 ESE | 117 SSW | 213 36.4 35.3 30.0 33.8 42.2 41.2
9/5/26 - 0430 30.2 14.2 100 30.2 30.0 30.9 33.3 ESE | 109 SSW | 213 38.5 37.1 30.1 33.8 42.2 41.2
9/5/26 - 0415 30.2 14.2 100 30.2 30.1 31.2 33.3 ESE | 109 SSW | 213 38.7 36.7 30.2 33.8 42.2 41.2
9/5/26 - 0400 30.4 14.6 100 30.4 30.3 30.4 32.0 E | 97 SSW | 213 37.4 34.9 30.3 33.8 42.2 41.2
9/5/26 - 0345 30.4 14.9 100 30.4 30.3 29.1 31.0 NE | 41 SW | 215 36.0 34.7 30.3 33.8 42.2 41.2
9/5/26 - 0330 30.8 15.2 100 30.8 30.7 29.8 32.0 NE | 52 SW | 215 37.4 36.5 30.5 33.8 42.2 41.2
9/5/26 - 0315 31.4 15.8 100 31.4 31.3 31.8 34.4 NE | 53 SSW | 213 38.7 37.6 31.1 33.8 42.2 41.2
9/5/26 - 0300 31.8 16.3 100 31.8 31.7 31.7 34.3 NNE | 24 SSW | 211 38.8 38.0 31.4 33.8 42.2 41.2
9/5/26 - 0245 32.3 17.1 100 32.3 32.2 31.0 33.7 NNE | 28 SSW | 210 38.4 36.2 32.0 33.8 42.2 41.2
9/5/26 - 0230 32.4 17.5 100 32.4 32.4 30.0 32.5 N | 11 SSW | 210 36.9 36.5 32.3 33.8 42.2 41.2
9/5/26 - 0215 32.6 17.3 100 32.6 32.5 31.0 33.6 N | 3 SSW | 211 40.2 39.2 32.4 33.8 42.2 41.2
9/5/26 - 0200 33.1 18.2 100 33.1 33.0 30.0 32.7 N | 1 SSW | 210 38.9 40.3 32.8 33.8 42.2 41.2
9/5/26 - 0145 33.5 18.9 100 33.5 33.5 30.0 32.0 N | 3 SSW | 210 38.0 39.4 33.1 33.8 42.2 41.2
9/5/26 - 0130 33.5 18.6 100 33.5 33.4 30.8 32.0 N | 1 SSW | 208 40.1 38.5 33.1 33.8 42.2 41.2
9/5/26 - 0115 33.3 18.1 100 33.3 33.3 32.1 34.8 N | 1 SSW | 213 42.2 41.2 33.1 33.5 42.2 41.2
9/5/26 - 0100 33.6 18.4 100 33.6 33.5 32.1 34.8 N | 1 SSW | 212 42.9 42.3 30.8 40.8 56.1 54.6
9/5/26 - 0045 33.5 18.2 100 33.5 33.5 32.8 35.1 N | 2 SW | 214 42.5 41.6 30.8 40.8 56.1 54.6
9/5/26 - 0030 33.5 18.1 100 33.5 33.5 34.2 35.7 N | 0 SSW | 211 43.5 41.6 30.8 40.8 56.1 54.6
9/5/26 - 0015 33.5 18.0 100 33.5 33.5 34.0 36.1 N | 4 SSW | 213 44.8 42.5 30.8 40.8 56.1 54.6
9/5/26 - 0000 33.6 18.1 100 33.6 33.6 34.3 35.9 N | 0 SSW | 213 44.3 45.0 30.8 40.8 56.1 54.6
9/4/26 - 2345 33.7 18.2 100 33.7 33.6 33.7 35.5 N | 0 SW | 215 45.0 43.4 30.8 40.8 56.1 54.6
9/4/26 - 2330 33.7 18.5 100 33.7 33.7 33.2 35.4 N | 4 SW | 214 43.1 43.4 30.8 40.8 56.1 54.6
9/4/26 - 2315 33.7 18.4 100 33.7 33.7 33.7 35.7 N | 7 SW | 215 43.7 42.7 30.8 40.8 56.1 54.6
9/4/26 - 2300 33.8 18.4 100 33.8 33.8 34.6 35.9 NNE | 21 SSW | 213 44.6 40.9 30.8 40.8 56.1 54.6
9/4/26 - 2245 33.9 18.7 100 33.9 33.9 34.1 35.8 N | 7 SW | 216 42.7 40.9 30.8 40.8 56.1 54.6
9/4/26 - 2230 34.1 18.7 100 34.1 34.0 34.8 37.2 N | 10 SW | 216 44.4 43.0 30.8 40.8 56.1 54.6
9/4/26 - 2215 34.3 19.0 100 34.3 34.3 35.6 38.0 NNE | 17 SW | 217 44.4 43.2 30.8 40.8 56.1 54.6
9/4/26 - 2200 34.4 18.8 100 34.4 34.4 37.0 38.7 N | 10 SSW | 212 47.0 44.1 30.8 40.8 56.1 54.6
9/4/26 - 2145 34.6 19.1 100 34.6 34.6 36.7 38.9 N | 4 SW | 214 48.1 45.4 30.8 40.8 56.1 54.6
9/4/26 - 2130 35.0 19.9 100 35.0 35.0 35.9 37.2 N | 0 SW | 214 45.6 43.2 30.8 40.8 56.1 54.6
9/4/26 - 2115 35.3 20.4 100 35.3 35.3 34.0 35.5 N | 6 SW | 215 45.6 44.7 30.8 40.8 56.1 54.6
9/4/26 - 2100 35.4 20.4 100 35.4 35.5 34.8 36.3 N | 2 SW | 215 47.5 43.8 30.8 40.8 56.1 54.6
9/4/26 - 2045 35.4 20.5 100 35.4 35.4 34.0 35.6 N | 9 SW | 214 46.5 48.1 30.8 40.8 56.1 54.6
9/4/26 - 2030 35.6 20.9 100 35.6 35.6 33.6 34.8 N | 1 SW | 214 44.6 43.0 30.8 40.8 56.1 54.6
9/4/26 - 2015 35.8 21.4 100 35.8 35.9 32.2 33.4 N | 2 SW | 214 45.1 43.2 30.8 40.8 56.1 54.6
9/4/26 - 2000 36.1 22.0 100 36.1 36.2 30.9 31.6 N | 0 SW | 218 43.0 41.6 30.8 40.8 56.1 54.6
9/4/26 - 1945 36.5 22.5 100 36.5 36.6 31.0 31.8 N | 5 SW | 218 43.7 42.3 30.8 40.8 56.1 54.6
9/4/26 - 1930 36.5 22.3 100 36.5 36.6 32.7 33.5 N | 4 SW | 218 44.0 42.0 30.8 40.8 56.1 54.6
Max 44.6 33.8 100 36.5 39.9 38.4 38.9 - - 53.8 54.6 33.1 45.1 56.1 54.6
Avg 36.6 22.7 84 31.8 34.7 31.7 32.7 - - 42.1 41.1 - - - -
Min 30.1 14.0 57 24.1 28.8 23.2 23.7 - - 30.3 28.0 30.0 33.5 42.2 41.2
Calm: 0.0%